createdAt,value
2022-12-01T00:01:13.137Z,97.41
2022-12-01T00:03:40.349Z,97.25
2022-12-01T00:06:13.212Z,97.63
2022-12-01T00:08:39.886Z,97.54
2022-12-01T00:11:14.381Z,97.21
2022-12-01T00:13:41.030Z,97.40
2022-12-01T00:16:16.052Z,96.98
2022-12-01T00:18:43.237Z,97.25
2022-12-01T00:21:21.740Z,97.00
2022-12-01T00:23:51.380Z,97.80
2022-12-01T00:26:19.702Z,97.00
2022-12-01T00:28:54.450Z,97.05
2022-12-01T00:31:21.969Z,97.13
2022-12-01T00:33:48.941Z,97.02
2022-12-01T00:36:16.042Z,97.20
2022-12-01T00:38:42.759Z,96.85
2022-12-01T00:41:09.789Z,97.45
2022-12-01T00:43:36.827Z,97.14
2022-12-01T00:46:04.315Z,96.97
2022-12-01T00:48:31.418Z,97.01
2022-12-01T00:50:58.296Z,97.29
2022-12-01T00:53:25.124Z,96.95
2022-12-01T00:55:54.149Z,97.45
2022-12-01T00:58:24.683Z,96.74
2022-12-01T01:01:00.783Z,96.84
2022-12-01T01:03:28.311Z,97.23
2022-12-01T01:05:55.046Z,97.21
2022-12-01T01:08:21.935Z,97.06
2022-12-01T01:10:51.906Z,97.35
2022-12-01T01:13:27.841Z,97.37
2022-12-01T01:16:05.469Z,97.43
2022-12-01T01:18:33.014Z,97.83
2022-12-01T01:21:03.340Z,96.95
2022-12-01T01:23:30.417Z,97.67
2022-12-01T01:26:06.418Z,97.50
2022-12-01T01:28:33.239Z,97.65
2022-12-01T01:31:00.208Z,97.84
2022-12-01T01:33:26.957Z,97.63
2022-12-01T01:35:53.682Z,97.60
2022-12-01T01:38:20.335Z,97.49
2022-12-01T01:40:47.597Z,97.61
2022-12-01T01:43:19.076Z,97.71
2022-12-01T01:45:46.244Z,97.42
2022-12-01T01:48:13.822Z,97.82
2022-12-01T01:50:40.813Z,97.63
2022-12-01T01:53:12.797Z,97.11
2022-12-01T01:55:39.799Z,97.79
2022-12-01T01:58:10.866Z,97.29
2022-12-01T02:00:42.069Z,97.45
2022-12-01T02:03:12.575Z,97.30
2022-12-01T02:05:40.164Z,97.33
2022-12-01T02:08:12.520Z,97.12
2022-12-01T02:11:00.829Z,97.25
2022-12-01T02:13:33.247Z,97.10
2022-12-01T02:16:05.718Z,97.05
2022-12-01T02:18:59.397Z,96.92
2022-12-01T02:21:28.935Z,96.98
2022-12-01T02:23:55.558Z,97.14
2022-12-01T02:26:31.156Z,97.11
2022-12-01T02:29:27.742Z,97.37
2022-12-01T02:32:27.307Z,96.86
2022-12-01T02:34:59.280Z,97.37
2022-12-01T02:37:45.371Z,97.05
2022-12-01T02:40:25.388Z,97.16
2022-12-01T02:43:06.163Z,96.87
2022-12-01T02:45:35.720Z,96.95
2022-12-01T02:48:05.389Z,97.03
2022-12-01T02:50:35.276Z,97.19
2022-12-01T02:53:04.543Z,97.28
2022-12-01T02:55:32.839Z,96.69
2022-12-01T02:57:59.558Z,97.13
2022-12-01T03:00:26.387Z,96.83
2022-12-01T03:02:53.108Z,96.35
2022-12-01T03:05:28.363Z,96.84
2022-12-01T03:08:36.543Z,97.04
2022-12-01T03:11:03.718Z,96.41
2022-12-01T03:13:46.503Z,96.71
2022-12-01T03:16:25.156Z,96.42
2022-12-01T03:19:04.283Z,96.21
2022-12-01T03:21:30.930Z,96.45
2022-12-01T03:24:11.825Z,96.61
2022-12-01T03:26:42.055Z,96.46
2022-12-01T03:29:13.691Z,96.35
2022-12-01T03:31:46.201Z,96.34
2022-12-01T03:34:18.138Z,96.35
2022-12-01T03:36:56.210Z,96.29
2022-12-01T03:39:29.737Z,96.27
2022-12-01T03:42:05.746Z,96.47
2022-12-01T03:44:47.947Z,96.64
2022-12-01T03:47:21.060Z,96.27
2022-12-01T03:49:51.576Z,96.78
2022-12-01T03:52:40.328Z,96.27
2022-12-01T03:55:22.749Z,96.14
2022-12-01T03:58:05.547Z,96.20
2022-12-01T04:00:33.245Z,96.27
2022-12-01T04:03:05.174Z,96.15
2022-12-01T04:05:33.959Z,96.03
2022-12-01T04:08:01.222Z,96.61
2022-12-01T04:10:28.075Z,96.27
2022-12-01T04:12:59.299Z,96.31
2022-12-01T04:15:26.890Z,96.37
2022-12-01T04:17:53.713Z,96.14
2022-12-01T04:20:20.617Z,96.66
2022-12-01T04:22:48.125Z,96.75
2022-12-01T04:25:15.050Z,96.56
2022-12-01T04:27:42.007Z,97.01
2022-12-01T04:30:09.488Z,96.63
2022-12-01T04:32:40.847Z,97.15
2022-12-01T04:35:09.023Z,96.80
2022-12-01T04:37:36.069Z,97.15
2022-12-01T04:40:03.185Z,97.18
2022-12-01T04:42:30.126Z,97.07
2022-12-01T04:44:56.816Z,97.00
2022-12-01T04:47:23.586Z,97.00
2022-12-01T04:49:50.398Z,97.11
2022-12-01T04:52:17.360Z,97.15
2022-12-01T04:54:43.984Z,97.60
2022-12-01T04:57:10.595Z,97.34
2022-12-01T04:59:37.387Z,97.29
2022-12-01T05:02:04.377Z,97.17
2022-12-01T05:04:32.626Z,97.38
2022-12-01T05:06:59.377Z,97.29
2022-12-01T05:09:26.063Z,97.45
2022-12-01T05:11:52.709Z,97.40
2022-12-01T05:14:19.470Z,97.43
2022-12-01T05:16:48.281Z,97.50
2022-12-01T05:19:33.420Z,97.49
2022-12-01T05:22:00.040Z,97.48
2022-12-01T05:24:26.706Z,98.07
2022-12-01T05:26:53.484Z,98.01
2022-12-01T05:29:20.203Z,97.57
2022-12-01T05:31:47.261Z,97.53
2022-12-01T05:34:14.504Z,97.75
2022-12-01T05:36:42.109Z,97.29
2022-12-01T05:39:08.785Z,97.69
2022-12-01T05:41:35.621Z,97.60
2022-12-01T05:44:02.368Z,97.40
2022-12-01T05:46:41.584Z,97.87
2022-12-01T05:49:08.237Z,97.46
2022-12-01T05:51:35.021Z,98.01
2022-12-01T05:54:03.191Z,97.58
2022-12-01T05:56:29.888Z,97.78
2022-12-01T05:58:56.626Z,97.87
2022-12-01T06:01:23.468Z,97.91
2022-12-01T06:03:50.192Z,97.96
2022-12-01T06:06:17.017Z,98.24
2022-12-01T06:08:43.784Z,98.11
2022-12-01T06:11:10.424Z,98.10
2022-12-01T06:13:37.073Z,97.99
2022-12-01T06:16:06.171Z,97.88
2022-12-01T06:18:35.659Z,98.08
2022-12-01T06:21:02.756Z,97.97
2022-12-01T06:23:30.725Z,98.04
2022-12-01T06:25:58.354Z,97.91
2022-12-01T06:28:59.265Z,98.08
2022-12-01T06:31:25.950Z,97.99
2022-12-01T06:33:52.645Z,98.41
2022-12-01T06:36:19.437Z,98.13
2022-12-01T06:38:46.085Z,98.44
2022-12-01T06:41:12.722Z,97.79
2022-12-01T06:43:39.474Z,98.24
2022-12-01T06:46:06.748Z,98.15
2022-12-01T06:48:34.494Z,98.11
2022-12-01T06:51:02.585Z,98.10
2022-12-01T06:53:29.852Z,97.92
2022-12-01T06:56:01.125Z,98.16
2022-12-01T06:58:28.228Z,98.25
2022-12-01T07:00:55.325Z,97.67
2022-12-01T07:03:22.062Z,97.95
2022-12-01T07:05:58.798Z,98.03
2022-12-01T07:08:26.947Z,98.02
2022-12-01T07:10:57.766Z,97.82
2022-12-01T07:13:28.727Z,98.00
2022-12-01T07:15:58.352Z,97.93
2022-12-01T07:18:25.131Z,97.70
2022-12-01T07:20:51.729Z,97.98
2022-12-01T07:23:18.445Z,98.29
2022-12-01T07:25:45.245Z,98.13
2022-12-01T07:28:12.031Z,98.33
2022-12-01T07:30:39.082Z,97.63
2022-12-01T07:33:05.873Z,97.88
2022-12-01T07:35:32.487Z,98.11
2022-12-01T07:37:59.146Z,97.31
2022-12-01T07:40:26.093Z,97.58
2022-12-01T07:42:52.738Z,97.66
2022-12-01T07:45:19.349Z,97.70
2022-12-01T07:47:46.138Z,96.96
2022-12-01T07:50:12.959Z,97.38
2022-12-01T07:52:39.624Z,97.21
2022-12-01T07:55:06.929Z,97.46
2022-12-01T07:57:38.580Z,97.15
2022-12-01T08:00:06.124Z,97.52
2022-12-01T08:02:32.895Z,97.73
2022-12-01T08:04:59.905Z,97.34
2022-12-01T08:07:29.839Z,97.43
2022-12-01T08:09:56.866Z,97.52
2022-12-01T08:12:23.545Z,97.11
2022-12-01T08:14:50.150Z,97.21
2022-12-01T08:17:16.817Z,96.95
2022-12-01T08:19:43.518Z,97.41
2022-12-01T08:22:10.163Z,96.59
2022-12-01T08:24:36.907Z,96.92
2022-12-01T08:27:03.649Z,97.25
2022-12-01T08:29:30.381Z,97.44
2022-12-01T08:32:00.156Z,97.10
2022-12-01T08:34:26.823Z,96.86
2022-12-01T08:36:53.493Z,96.77
2022-12-01T08:39:20.254Z,96.34
2022-12-01T08:41:46.947Z,96.85
2022-12-01T08:44:13.807Z,96.96
2022-12-01T08:46:42.909Z,96.41
2022-12-01T08:49:09.661Z,96.61
2022-12-01T08:51:37.196Z,96.43
2022-12-01T08:54:04.375Z,96.86
2022-12-01T08:56:50.620Z,96.87
2022-12-01T08:59:39.158Z,96.31
2022-12-01T09:04:55.843Z,96.50
2022-12-01T09:07:26.389Z,96.76
2022-12-01T09:09:53.711Z,96.96
2022-12-01T09:12:20.391Z,97.18
2022-12-01T09:14:49.969Z,96.95
2022-12-01T09:17:17.725Z,96.75
2022-12-01T09:38:32.583Z,95.37
2022-12-01T09:41:31.213Z,95.92
2022-12-01T09:44:17.391Z,95.49
2022-12-01T09:46:50.085Z,95.01
2022-12-01T09:49:41.802Z,95.11
2022-12-01T09:52:14.232Z,94.49
2022-12-01T09:54:41.335Z,93.44
2022-12-01T09:57:25.980Z,92.50
2022-12-01T09:59:53.697Z,93.39
2022-12-01T10:02:26.424Z,92.61
2022-12-01T10:04:56.547Z,92.43
2022-12-01T10:07:31.445Z,92.04
2022-12-01T10:10:01.233Z,91.27
2022-12-01T10:12:34.118Z,91.20
2022-12-01T10:15:39.425Z,91.08
2022-12-01T10:18:06.335Z,91.73
2022-12-01T10:21:26.359Z,91.40
2022-12-01T10:24:01.963Z,92.06
2022-12-01T10:26:37.596Z,91.52
2022-12-01T10:29:13.770Z,91.71
2022-12-01T10:31:52.977Z,91.63
2022-12-01T10:34:28.644Z,91.66
2022-12-01T10:36:59.305Z,91.18
2022-12-01T10:39:35.171Z,90.77
2022-12-01T10:42:07.335Z,91.09
2022-12-01T10:44:35.482Z,91.60
2022-12-01T10:47:02.651Z,91.16
2022-12-01T10:49:39.037Z,91.63
2022-12-01T10:52:06.917Z,91.51
2022-12-01T10:54:37.554Z,91.47
2022-12-01T10:57:06.386Z,92.00
2022-12-01T11:00:06.194Z,92.24
2022-12-01T11:02:33.674Z,91.55
2022-12-01T11:31:53.244Z,88.86
2022-12-01T11:36:59.841Z,88.36
2022-12-01T11:39:36.938Z,89.02
2022-12-01T11:42:07.458Z,88.73
2022-12-01T11:44:51.009Z,88.82
2022-12-01T11:47:23.532Z,89.49
2022-12-01T11:50:02.746Z,89.28
2022-12-01T11:52:36.816Z,89.24
2022-12-01T11:55:12.464Z,89.12
2022-12-01T11:57:42.860Z,88.60
2022-12-01T12:11:08.741Z,88.65
2022-12-01T12:27:27.258Z,88.19
2022-12-01T12:59:22.911Z,88.88
2022-12-01T13:02:21.711Z,89.11
2022-12-01T13:04:54.311Z,89.26
2022-12-01T13:07:20.987Z,89.43
2022-12-01T13:09:53.657Z,90.24
2022-12-01T13:12:30.828Z,89.71
2022-12-01T13:15:03.492Z,89.96
2022-12-01T13:17:43.897Z,90.17
2022-12-01T13:20:15.647Z,90.41
2022-12-01T13:22:42.500Z,89.82
2022-12-01T13:25:33.174Z,89.74
2022-12-01T13:28:02.891Z,88.93
2022-12-01T13:30:34.167Z,89.19
2022-12-01T13:33:06.876Z,88.86
2022-12-01T13:35:36.718Z,89.35
2022-12-01T13:38:22.016Z,89.35
2022-12-01T13:43:37.743Z,89.55
2022-12-01T13:46:04.731Z,89.68
2022-12-01T13:48:37.393Z,90.11
2022-12-01T13:51:05.155Z,90.05
2022-12-01T13:53:33.301Z,89.89
2022-12-01T13:56:02.682Z,89.22
2022-12-01T13:58:35.366Z,89.51
2022-12-01T14:19:53.651Z,88.67
2022-12-01T14:22:38.223Z,88.68
2022-12-01T14:25:28.596Z,89.10
2022-12-01T14:27:57.787Z,88.49
2022-12-01T14:30:44.510Z,89.74
2022-12-01T14:33:42.009Z,89.39
2022-12-01T14:36:23.597Z,89.41
2022-12-01T14:39:11.131Z,89.08
2022-12-01T14:41:45.677Z,89.60
2022-12-01T14:44:29.267Z,89.91
2022-12-01T14:47:10.984Z,89.49
2022-12-01T14:49:39.901Z,89.52
2022-12-01T14:52:14.571Z,89.33
2022-12-01T14:54:47.657Z,89.80
2022-12-01T14:57:19.081Z,89.92
2022-12-01T14:59:45.882Z,89.33
2022-12-01T15:40:11.968Z,89.88
2022-12-01T15:42:43.133Z,89.38
2022-12-01T15:45:12.833Z,89.63
2022-12-01T15:47:45.113Z,89.95
2022-12-01T15:50:39.732Z,90.02
2022-12-01T15:53:26.179Z,89.74
2022-12-01T15:55:58.821Z,89.95
2022-12-01T15:58:30.422Z,89.76
2022-12-01T16:27:57.550Z,90.73
2022-12-01T16:35:40.961Z,90.87
2022-12-01T18:13:12.613Z,86.31
2022-12-01T18:15:59.065Z,86.12
2022-12-01T19:21:28.630Z,85.01
2022-12-01T19:23:53.818Z,85.60
2022-12-01T19:26:23.254Z,84.97
2022-12-01T19:28:50.188Z,84.91
2022-12-01T19:31:25.094Z,85.00
2022-12-01T19:33:53.867Z,85.02
2022-12-01T19:36:26.140Z,84.85
2022-12-01T19:38:53.632Z,84.90
2022-12-01T19:57:27.489Z,86.24
2022-12-01T20:02:35.526Z,85.89
2022-12-01T20:05:02.350Z,85.24
2022-12-01T20:07:32.125Z,85.14
2022-12-01T20:09:59.183Z,85.44
2022-12-01T20:12:28.833Z,85.91
2022-12-01T20:14:56.398Z,85.26
2022-12-01T20:17:23.278Z,85.46
2022-12-01T20:41:22.052Z,85.54
2022-12-01T20:43:48.758Z,86.19
2022-12-01T20:46:16.085Z,87.11
2022-12-01T20:48:43.418Z,86.94
2022-12-01T20:51:13.096Z,86.93
2022-12-01T20:53:42.410Z,87.09
2022-12-01T20:56:14.729Z,86.52
2022-12-01T20:58:41.707Z,86.81
2022-12-01T21:01:17.202Z,86.74
2022-12-01T21:03:45.995Z,87.25
2022-12-01T21:06:14.960Z,86.68
2022-12-01T21:22:46.245Z,86.16
2022-12-01T21:25:51.201Z,86.36
2022-12-01T21:31:53.007Z,86.51
2022-12-01T21:45:00.671Z,86.28
2022-12-01T21:52:08.540Z,85.74
2022-12-01T21:55:35.315Z,85.87
2022-12-01T21:58:27.278Z,85.81
2022-12-01T23:21:56.978Z,86.49
2022-12-01T23:24:33.685Z,86.93
2022-12-01T23:27:10.080Z,87.02
2022-12-01T23:30:04.202Z,87.75
2022-12-01T23:32:34.893Z,87.59
2022-12-01T23:35:28.391Z,87.95
2022-12-01T23:38:29.634Z,87.56
